TimeCDT,TemperatureF,Dew PointF,Humidity,Sea Level PressureIn,VisibilityMPH,Wind Direction,Wind SpeedMPH,Gust SpeedMPH,PrecipitationIn,Events,Conditions,WindDirDegrees,DateUTC
12:08 AM,59.0,50.0,72,29.85,10.0,NW,5.8,-,N/A,,Clear,310,2013-07-23 05:08:00
12:28 AM,57.2,50.0,77,29.86,10.0,NW,5.8,-,N/A,,Clear,310,2013-07-23 05:28:00
12:48 AM,57.2,50.0,77,29.87,10.0,WNW,4.6,-,N/A,,Clear,300,2013-07-23 05:48:00
1:08 AM,57.2,50.0,77,29.87,10.0,NNW,5.8,-,N/A,,Clear,340,2013-07-23 06:08:00
1:28 AM,57.2,50.0,77,29.88,10.0,NW,5.8,-,N/A,,Clear,320,2013-07-23 06:28:00
1:48 AM,57.2,48.2,72,29.89,10.0,NNW,8.1,-,N/A,,Clear,340,2013-07-23 06:48:00
2:08 AM,57.2,50.0,77,29.89,10.0,NNW,6.9,-,N/A,,Clear,340,2013-07-23 07:08:00
2:28 AM,57.2,50.0,77,29.89,10.0,NNW,6.9,-,N/A,,Clear,330,2013-07-23 07:28:00
2:48 AM,53.6,46.4,77,29.90,10.0,NNW,6.9,-,N/A,,Clear,330,2013-07-23 07:48:00
3:08 AM,53.6,46.4,77,29.90,10.0,NNW,8.1,-,N/A,,Clear,330,2013-07-23 08:08:00
3:28 AM,53.6,46.4,77,29.91,10.0,NNW,6.9,-,N/A,,Clear,330,2013-07-23 08:28:00
3:48 AM,53.6,46.4,77,29.92,10.0,NNW,8.1,-,N/A,,Clear,340,2013-07-23 08:48:00
4:08 AM,51.8,44.6,76,29.92,10.0,NNW,5.8,-,N/A,,Clear,340,2013-07-23 09:08:00
4:28 AM,51.8,44.6,76,29.93,10.0,NNW,3.5,-,N/A,,Clear,340,2013-07-23 09:28:00
4:48 AM,51.8,44.6,76,29.93,10.0,North,4.6,-,N/A,,Clear,360,2013-07-23 09:48:00
5:08 AM,51.8,44.6,76,29.94,10.0,NW,4.6,-,N/A,,Scattered Clouds,320,2013-07-23 10:08:00
5:28 AM,51.8,46.4,82,29.94,10.0,NNW,6.9,-,N/A,,Clear,340,2013-07-23 10:28:00
5:48 AM,51.8,46.4,82,29.95,10.0,North,8.1,-,N/A,,Clear,350,2013-07-23 10:48:00
6:08 AM,51.8,46.4,82,29.96,10.0,North,4.6,-,N/A,,Clear,360,2013-07-23 11:08:00
6:28 AM,51.8,46.4,82,29.96,10.0,NNW,6.9,-,N/A,,Scattered Clouds,340,2013-07-23 11:28:00
6:48 AM,51.8,46.4,82,29.97,10.0,North,3.5,-,N/A,,Overcast,360,2013-07-23 11:48:00
7:08 AM,51.8,44.6,76,29.98,10.0,North,5.8,-,N/A,,Overcast,350,2013-07-23 12:08:00
7:28 AM,53.6,46.4,77,29.99,10.0,North,4.6,-,N/A,,Overcast,360,2013-07-23 12:28:00
7:48 AM,53.6,46.4,77,30.00,10.0,North,5.8,-,N/A,,Scattered Clouds,10,2013-07-23 12:48:00
8:08 AM,57.2,46.4,67,30.00,10.0,NNE,8.1,-,N/A,,Clear,30,2013-07-23 13:08:00
8:28 AM,57.2,46.4,67,30.01,10.0,North,6.9,-,N/A,,Scattered Clouds,360,2013-07-23 13:28:00
8:48 AM,57.2,44.6,63,30.01,10.0,NNE,8.1,-,N/A,,Scattered Clouds,20,2013-07-23 13:48:00
9:08 AM,59.0,46.4,63,30.02,10.0,NE,10.4,-,N/A,,Scattered Clouds,40,2013-07-23 14:08:00
9:29 AM,59.0,46.4,63,30.03,10.0,NNE,9.2,16.1,N/A,,Scattered Clouds,20,2013-07-23 14:29:00
9:48 AM,59.0,46.4,63,30.04,10.0,NE,6.9,-,N/A,,Scattered Clouds,40,2013-07-23 14:48:00
10:08 AM,60.8,44.6,55,30.04,10.0,NNE,8.1,-,N/A,,Clear,30,2013-07-23 15:08:00
10:29 AM,62.6,46.4,55,30.04,10.0,NE,8.1,-,N/A,,Scattered Clouds,50,2013-07-23 15:29:00
10:48 AM,62.6,46.4,55,30.05,10.0,NNW,6.9,-,N/A,,Mostly Cloudy,330,2013-07-23 15:48:00
11:08 AM,62.6,46.4,55,30.05,10.0,North,5.8,-,N/A,,Mostly Cloudy,10,2013-07-23 16:08:00
11:29 AM,62.6,44.6,52,30.06,10.0,NE,8.1,-,N/A,,Scattered Clouds,50,2013-07-23 16:29:00
11:48 AM,62.6,44.6,52,30.05,10.0,NE,5.8,-,N/A,,Mostly Cloudy,50,2013-07-23 16:48:00
12:08 PM,62.6,44.6,52,30.05,10.0,North,6.9,-,N/A,,Mostly Cloudy,360,2013-07-23 17:08:00
12:29 PM,64.4,46.4,52,30.05,10.0,North,5.8,-,N/A,,Mostly Cloudy,350,2013-07-23 17:29:00
12:48 PM,62.6,44.6,52,30.05,10.0,North,3.5,-,N/A,,Scattered Clouds,10,2013-07-23 17:48:00
1:08 PM,66.2,44.6,46,30.05,10.0,North,4.6,-,N/A,,Scattered Clouds,10,2013-07-23 18:08:00
1:29 PM,66.2,46.4,49,30.04,10.0,North,5.8,-,N/A,,Scattered Clouds,360,2013-07-23 18:29:00
1:48 PM,68.0,46.4,46,30.04,10.0,ENE,8.1,-,N/A,,Scattered Clouds,60,2013-07-23 18:48:00
2:08 PM,68.0,46.4,46,30.04,10.0,NE,4.6,-,N/A,,Scattered Clouds,40,2013-07-23 19:08:00
2:29 PM,66.2,44.6,46,30.04,10.0,NNW,8.1,-,N/A,,Scattered Clouds,330,2013-07-23 19:29:00
2:48 PM,64.4,44.6,49,30.04,10.0,North,3.5,-,N/A,,Scattered Clouds,360,2013-07-23 19:48:00
3:08 PM,69.8,46.4,43,30.05,10.0,NNE,6.9,-,N/A,,Mostly Cloudy,20,2013-07-23 20:08:00
3:29 PM,66.2,46.4,49,30.05,10.0,NNE,9.2,-,N/A,,Scattered Clouds,20,2013-07-23 20:29:00
3:48 PM,68.0,46.4,46,30.05,10.0,Calm,Calm,-,N/A,,Scattered Clouds,0,2013-07-23 20:48:00
4:08 PM,69.8,46.4,43,30.05,10.0,North,4.6,-,N/A,,Scattered Clouds,10,2013-07-23 21:08:00
4:28 PM,66.2,46.4,49,30.04,10.0,NNE,8.1,-,N/A,,Scattered Clouds,20,2013-07-23 21:28:00
4:47 PM,66.2,44.6,46,30.04,10.0,NNW,5.8,-,N/A,,Scattered Clouds,330,2013-07-23 21:47:00
5:08 PM,68.0,46.4,46,30.04,10.0,NNE,8.1,-,N/A,,Scattered Clouds,20,2013-07-23 22:08:00
5:28 PM,68.0,44.6,43,30.03,10.0,North,5.8,-,N/A,,Scattered Clouds,350,2013-07-23 22:28:00
5:48 PM,66.2,44.6,46,30.04,10.0,NNW,5.8,-,N/A,,Clear,330,2013-07-23 22:48:00
6:08 PM,69.8,48.2,46,30.03,10.0,NNE,4.6,-,N/A,,Scattered Clouds,20,2013-07-23 23:08:00
6:28 PM,68.0,44.6,43,30.03,10.0,NNE,8.1,-,N/A,,Scattered Clouds,20,2013-07-23 23:28:00
6:48 PM,68.0,46.4,46,30.03,10.0,North,4.6,-,N/A,,Scattered Clouds,10,2013-07-23 23:48:00
7:08 PM,68.0,46.4,46,30.03,10.0,NNE,4.6,-,N/A,,Scattered Clouds,30,2013-07-24 00:08:00
7:28 PM,66.2,44.6,46,30.03,10.0,NNE,4.6,-,N/A,,Scattered Clouds,20,2013-07-24 00:28:00
7:48 PM,64.4,46.4,52,30.03,10.0,Calm,Calm,-,N/A,,Clear,0,2013-07-24 00:48:00
8:08 PM,62.6,46.4,55,30.04,10.0,Calm,Calm,-,N/A,,Clear,0,2013-07-24 01:08:00
8:28 PM,62.6,48.2,59,30.03,10.0,Calm,Calm,-,N/A,,Clear,0,2013-07-24 01:28:00
8:48 PM,57.2,50.0,77,30.04,10.0,Calm,Calm,-,N/A,,Clear,0,2013-07-24 01:48:00
9:08 PM,55.4,50.0,82,30.04,10.0,NNE,3.5,-,N/A,,Clear,30,2013-07-24 02:08:00
9:28 PM,51.8,48.2,88,30.05,10.0,Calm,Calm,-,N/A,,Clear,0,2013-07-24 02:28:00
9:48 PM,51.8,50.0,94,30.05,10.0,Calm,Calm,-,N/A,,Clear,0,2013-07-24 02:48:00
10:08 PM,51.8,50.0,94,30.05,10.0,Calm,Calm,-,N/A,,Clear,0,2013-07-24 03:08:00
10:28 PM,51.8,50.0,94,30.05,10.0,Calm,Calm,-,N/A,,Clear,0,2013-07-24 03:28:00
10:48 PM,51.8,50.0,94,30.05,10.0,Calm,Calm,-,N/A,,Clear,0,2013-07-24 03:48:00
11:08 PM,51.8,50.0,94,30.05,10.0,Calm,Calm,-,N/A,,Clear,0,2013-07-24 04:08:00
11:28 PM,50.0,46.4,87,30.05,10.0,Calm,Calm,-,N/A,,Clear,0,2013-07-24 04:28:00
11:48 PM,50.0,48.2,94,30.05,10.0,Calm,Calm,-,N/A,,Clear,0,2013-07-24 04:48:00